createdAt,value
2022-10-06T00:00:46.330Z,99710.34
2022-10-06T00:03:14.131Z,99708.94
2022-10-06T00:05:43.358Z,99714.44
2022-10-06T00:08:11.157Z,99708.69
2022-10-06T00:10:40.345Z,99722.25
2022-10-06T00:13:08.177Z,99723.66
2022-10-06T00:15:36.107Z,99724.75
2022-10-06T00:18:03.737Z,99734.50
2022-10-06T00:20:31.322Z,99742.38
2022-10-06T00:23:00.328Z,99728.72
2022-10-06T00:25:28.384Z,99749.28
2022-10-06T00:27:56.469Z,99756.94
2022-10-06T00:30:25.978Z,99757.09
2022-10-06T00:32:54.585Z,99754.28
2022-10-06T00:35:22.678Z,99758.44
2022-10-06T00:37:50.323Z,99768.31
2022-10-06T00:40:19.761Z,99778.06
2022-10-06T00:42:53.593Z,99780.63
2022-10-06T00:45:26.848Z,99781.56
2022-10-06T00:47:55.939Z,99780.72
2022-10-06T00:50:23.590Z,99779.56
2022-10-06T00:52:51.186Z,99775.69
2022-10-06T00:55:22.309Z,99777.06
2022-10-06T00:57:51.198Z,99784.16
2022-10-06T01:00:18.920Z,99786.59
2022-10-06T01:02:49.984Z,99789.22
2022-10-06T01:05:21.671Z,99794.53
2022-10-06T01:07:49.450Z,99790.66
2022-10-06T01:10:17.052Z,99798.41
2022-10-06T01:12:46.158Z,99806.13
2022-10-06T01:15:13.805Z,99803.34
2022-10-06T01:17:44.446Z,99794.81
2022-10-06T01:20:13.811Z,99818.97
2022-10-06T01:22:44.380Z,99827.56
2022-10-06T01:25:13.912Z,99829.22
2022-10-06T01:27:44.170Z,99843.91
2022-10-06T01:30:15.042Z,99847.25
2022-10-06T01:32:43.112Z,99855.06
2022-10-06T01:35:11.347Z,99854.06
2022-10-06T01:37:38.917Z,99862.81
2022-10-06T01:40:08.850Z,99860.44
2022-10-06T01:42:37.136Z,99850.03
2022-10-06T01:45:06.002Z,99863.91
2022-10-06T01:47:34.414Z,99875.66
2022-10-06T01:50:01.945Z,99873.38
2022-10-06T01:52:29.486Z,99883.56
2022-10-06T01:54:57.139Z,99887.94
2022-10-06T01:57:25.983Z,99898.13
2022-10-06T01:59:54.950Z,99901.28
2022-10-06T02:02:22.712Z,99899.72
2022-10-06T02:04:50.306Z,99902.59
2022-10-06T02:07:17.927Z,99900.78
2022-10-06T02:09:45.532Z,99899.06
2022-10-06T02:12:13.051Z,99908.75
2022-10-06T02:14:42.021Z,99907.31
2022-10-06T02:17:09.845Z,99902.16
2022-10-06T02:19:37.389Z,99910.25
2022-10-06T02:22:05.578Z,99913.69
2022-10-06T02:24:33.438Z,99908.59
2022-10-06T02:27:01.362Z,99922.22
2022-10-06T02:29:28.914Z,99916.34
2022-10-06T02:31:57.831Z,99921.72
2022-10-06T02:34:25.397Z,99922.59
2022-10-06T02:36:52.974Z,99918.34
2022-10-06T02:39:20.622Z,99924.72
2022-10-06T02:41:48.179Z,99933.69
2022-10-06T02:44:16.023Z,99939.06
2022-10-06T02:46:43.666Z,99945.22
2022-10-06T02:49:13.275Z,99947.88
2022-10-06T02:51:40.860Z,99964.13
2022-10-06T02:54:08.691Z,99973.72
2022-10-06T02:56:37.904Z,99962.13
2022-10-06T02:59:05.504Z,99973.53
2022-10-06T03:01:33.141Z,99976.19
2022-10-06T03:04:00.765Z,99979.81
2022-10-06T03:06:30.929Z,99987.78
2022-10-06T03:08:59.614Z,99978.84
2022-10-06T03:11:28.812Z,99991.69
2022-10-06T03:13:57.019Z,100001.50
2022-10-06T03:16:26.061Z,100011.84
2022-10-06T03:18:54.914Z,100006.75
2022-10-06T03:21:24.639Z,100017.41
2022-10-06T03:23:56.449Z,100021.41
2022-10-06T03:26:27.124Z,100026.97
2022-10-06T03:28:54.761Z,100039.41
2022-10-06T03:31:22.680Z,100041.28
2022-10-06T03:33:50.644Z,100038.44
2022-10-06T03:36:20.416Z,100028.94
2022-10-06T03:38:48.504Z,100037.75
2022-10-06T03:41:19.125Z,100044.97
2022-10-06T03:43:48.123Z,100052.13
2022-10-06T03:46:17.346Z,100057.56
2022-10-06T03:48:45.280Z,100067.22
2022-10-06T03:51:15.192Z,100062.25
2022-10-06T03:53:44.955Z,100067.44
2022-10-06T03:56:14.018Z,100071.38
2022-10-06T03:58:45.384Z,100073.72
2022-10-06T04:01:15.468Z,100079.88
2022-10-06T04:03:43.368Z,100077.34
2022-10-06T04:06:13.302Z,100084.56
2022-10-06T04:08:42.350Z,100090.72
2022-10-06T04:11:11.650Z,100094.50
2022-10-06T04:13:39.657Z,100101.31
2022-10-06T04:16:13.857Z,100103.44
2022-10-06T04:18:41.659Z,100101.97
2022-10-06T04:21:09.371Z,100113.63
2022-10-06T04:23:37.420Z,100111.22
2022-10-06T04:26:09.325Z,100108.56
2022-10-06T04:28:38.038Z,100114.59
2022-10-06T04:31:07.516Z,100119.09
2022-10-06T04:33:36.569Z,100120.75
2022-10-06T04:36:05.902Z,100128.69
2022-10-06T04:38:34.272Z,100134.06
2022-10-06T04:41:06.212Z,100145.69
2022-10-06T04:43:34.109Z,100139.53
2022-10-06T04:46:18.149Z,100147.59
2022-10-06T04:48:52.892Z,100155.91
2022-10-06T04:51:21.910Z,100149.00
2022-10-06T04:53:49.841Z,100152.56
2022-10-06T04:56:22.024Z,100151.00
2022-10-06T04:58:50.871Z,100158.25
2022-10-06T05:01:20.262Z,100155.78
2022-10-06T05:03:48.644Z,100166.53
2022-10-06T05:06:19.231Z,100165.63
2022-10-06T05:08:48.678Z,100166.53
2022-10-06T05:11:18.143Z,100177.41
2022-10-06T05:13:47.457Z,100183.56
2022-10-06T05:16:17.650Z,100184.44
2022-10-06T05:18:45.479Z,100185.94
2022-10-06T05:21:14.870Z,100196.63
2022-10-06T05:23:44.384Z,100196.63
2022-10-06T05:26:13.599Z,100194.22
2022-10-06T05:28:41.473Z,100208.31
2022-10-06T05:31:11.467Z,100208.19
2022-10-06T05:33:39.551Z,100211.97
2022-10-06T05:36:08.609Z,100211.22
2022-10-06T05:38:36.098Z,100214.25
2022-10-06T05:41:06.687Z,100231.09
2022-10-06T05:43:34.695Z,100230.78
2022-10-06T05:46:05.120Z,100232.94
2022-10-06T05:48:33.236Z,100240.38
2022-10-06T05:51:01.882Z,100244.75
2022-10-06T05:53:30.436Z,100251.16
2022-10-06T05:56:06.911Z,100257.16
2022-10-06T05:58:36.110Z,100262.50
2022-10-06T06:01:08.147Z,100268.03
2022-10-06T06:03:35.765Z,100270.13
2022-10-06T06:06:03.476Z,100273.38
2022-10-06T06:08:31.402Z,100274.34
2022-10-06T06:11:08.480Z,100286.25
2022-10-06T06:13:36.132Z,100285.63
2022-10-06T06:16:05.997Z,100283.41
2022-10-06T06:18:34.579Z,100294.03
2022-10-06T06:21:03.412Z,100293.06
2022-10-06T06:23:32.865Z,100293.00
2022-10-06T06:26:02.645Z,100300.38
2022-10-06T06:28:32.618Z,100310.03
2022-10-06T06:31:02.459Z,100316.25
2022-10-06T06:33:30.353Z,100317.97
2022-10-06T06:36:01.114Z,100322.03
2022-10-06T06:38:29.197Z,100332.94
2022-10-06T06:40:56.846Z,100339.97
2022-10-06T06:43:24.387Z,100349.38
2022-10-06T06:45:53.308Z,100348.81
2022-10-06T06:48:20.897Z,100358.44
2022-10-06T06:50:56.855Z,100353.78
2022-10-06T06:53:24.469Z,100365.91
2022-10-06T06:55:52.338Z,100366.72
2022-10-06T06:58:20.399Z,100373.53
2022-10-06T07:00:48.853Z,100383.41
2022-10-06T07:03:38.485Z,100392.88
2022-10-06T07:06:09.939Z,100401.91
2022-10-06T07:08:38.241Z,100404.72
2022-10-06T07:11:13.856Z,100409.38
2022-10-06T07:13:42.347Z,100406.41
2022-10-06T07:16:29.409Z,100408.66
2022-10-06T07:19:18.253Z,100405.66
2022-10-06T07:22:08.245Z,100409.88
2022-10-06T07:24:58.742Z,100416.13
2022-10-06T07:27:26.819Z,100425.69
2022-10-06T07:29:55.573Z,100425.69
2022-10-06T07:32:23.985Z,100425.38
2022-10-06T07:34:53.252Z,100417.78
2022-10-06T07:37:21.284Z,100421.91
2022-10-06T07:39:49.857Z,100432.81
2022-10-06T07:42:17.712Z,100432.88
2022-10-06T07:45:06.028Z,100433.44
2022-10-06T07:47:33.764Z,100437.31
2022-10-06T07:50:02.666Z,100434.59
2022-10-06T07:52:30.258Z,100443.13
2022-10-06T07:54:58.346Z,100447.16
2022-10-06T07:57:26.794Z,100456.63
2022-10-06T07:59:55.585Z,100462.56
2022-10-06T08:02:28.317Z,100461.88
2022-10-06T08:04:57.839Z,100469.44
2022-10-06T08:07:27.405Z,100463.66
2022-10-06T08:09:54.958Z,100465.91
2022-10-06T08:12:34.888Z,100477.59
2022-10-06T08:15:06.961Z,100469.81
2022-10-06T08:17:36.364Z,100478.75
2022-10-06T08:20:04.918Z,100492.31
2022-10-06T08:22:33.869Z,100489.09
2022-10-06T08:25:06.317Z,100490.94
2022-10-06T08:27:35.423Z,100485.00
2022-10-06T08:30:03.426Z,100495.28
2022-10-06T08:32:32.079Z,100496.88
2022-10-06T08:34:59.680Z,100495.44
2022-10-06T08:37:27.457Z,100508.72
2022-10-06T08:39:56.775Z,100505.22
2022-10-06T08:42:28.341Z,100516.84
2022-10-06T08:44:58.589Z,100496.31
2022-10-06T08:47:28.589Z,100516.84
2022-10-06T08:49:57.128Z,100520.09
2022-10-06T08:52:45.170Z,100514.34
2022-10-06T08:55:25.835Z,100522.16
2022-10-06T08:58:04.478Z,100531.50
2022-10-06T09:00:33.645Z,100525.53
2022-10-06T09:03:01.954Z,100525.16
2022-10-06T09:05:31.380Z,100530.78
2022-10-06T09:08:13.514Z,100529.25
2022-10-06T09:10:49.103Z,100529.50
2022-10-06T09:13:22.040Z,100537.66
2022-10-06T09:15:51.789Z,100536.28
2022-10-06T09:18:22.337Z,100538.66
2022-10-06T09:20:55.142Z,100544.88
2022-10-06T09:23:42.772Z,100540.38
2022-10-06T09:26:14.928Z,100545.44
2022-10-06T09:28:46.035Z,100538.31
2022-10-06T09:31:23.115Z,100540.03
2022-10-06T09:33:53.774Z,100531.53
2022-10-06T09:36:21.362Z,100539.16
2022-10-06T09:38:54.190Z,100543.03
2022-10-06T09:41:27.814Z,100546.34
2022-10-06T09:43:58.442Z,100545.34
2022-10-06T09:46:32.112Z,100553.97
2022-10-06T09:49:08.273Z,100550.00
2022-10-06T09:51:36.377Z,100545.09
2022-10-06T09:54:14.410Z,100552.69
2022-10-06T09:56:45.028Z,100557.47
2022-10-06T09:59:20.478Z,100550.91
2022-10-06T10:01:55.188Z,100546.06
2022-10-06T10:04:25.695Z,100547.59
2022-10-06T10:06:53.879Z,100540.53
2022-10-06T10:09:29.097Z,100542.09
2022-10-06T10:12:27.475Z,100543.16
2022-10-06T10:14:57.732Z,100545.41
2022-10-06T10:17:34.090Z,100548.16
2022-10-06T10:20:02.696Z,100545.84
2022-10-06T10:22:35.542Z,100542.44
2022-10-06T10:25:09.468Z,100536.78
2022-10-06T10:27:41.226Z,100539.66
2022-10-06T10:30:09.948Z,100547.28
2022-10-06T10:32:52.915Z,100545.19
2022-10-06T10:35:26.070Z,100549.38
2022-10-06T10:37:59.434Z,100548.88
2022-10-06T10:40:34.182Z,100551.75
2022-10-06T10:43:19.346Z,100555.00
2022-10-06T10:45:48.610Z,100555.41
2022-10-06T10:48:23.561Z,100557.22
2022-10-06T10:50:55.353Z,100553.31
2022-10-06T10:53:30.671Z,100556.31
2022-10-06T10:55:59.046Z,100547.31
2022-10-06T10:58:32.629Z,100546.25
2022-10-06T11:01:11.011Z,100551.13
2022-10-06T11:03:38.856Z,100544.41
2022-10-06T11:06:19.006Z,100548.72
2022-10-06T11:08:51.910Z,100536.66
2022-10-06T11:11:25.901Z,100538.00
2022-10-06T11:13:57.325Z,100539.16
2022-10-06T11:16:37.152Z,100540.28
2022-10-06T11:19:18.144Z,100533.91
2022-10-06T11:21:53.148Z,100543.63
2022-10-06T11:24:29.158Z,100539.09
2022-10-06T11:27:10.718Z,100540.19
2022-10-06T11:29:46.465Z,100535.28
2022-10-06T11:32:24.545Z,100534.88
2022-10-06T11:34:52.571Z,100537.53
2022-10-06T11:37:27.557Z,100542.06
2022-10-06T11:39:59.218Z,100532.59
2022-10-06T11:42:31.141Z,100520.28
2022-10-06T11:45:04.667Z,100520.78
2022-10-06T11:47:36.490Z,100520.91
2022-10-06T11:50:15.313Z,100518.44
2022-10-06T11:52:47.381Z,100518.94
2022-10-06T11:55:17.919Z,100520.66
2022-10-06T11:58:23.791Z,100521.00
2022-10-06T12:00:57.704Z,100512.41
2022-10-06T12:03:45.270Z,100510.19
2022-10-06T12:06:46.585Z,100509.44
2022-10-06T12:09:40.253Z,100501.72
2022-10-06T12:13:07.176Z,100496.56
2022-10-06T12:17:09.341Z,100503.41
2022-10-06T12:18:59.311Z,100501.56
2022-10-06T12:21:37.504Z,100491.56
2022-10-06T12:24:18.079Z,100494.75
2022-10-06T12:26:58.416Z,100491.41
2022-10-06T12:29:45.989Z,100489.09
2022-10-06T12:32:19.979Z,100486.44
2022-10-06T12:34:58.128Z,100483.13
2022-10-06T12:37:42.961Z,100473.28
2022-10-06T12:40:46.933Z,100474.84
2022-10-06T12:43:35.899Z,100476.84
2022-10-06T12:46:07.529Z,100486.50
2022-10-06T12:48:38.821Z,100479.94
2022-10-06T12:51:19.121Z,100481.16
2022-10-06T12:53:52.294Z,100478.53
2022-10-06T12:56:28.368Z,100479.28
2022-10-06T12:58:55.955Z,100466.66
2022-10-06T13:01:29.308Z,100473.81
2022-10-06T13:03:56.937Z,100477.34
2022-10-06T13:06:26.241Z,100466.75
2022-10-06T13:09:05.855Z,100464.41
2022-10-06T13:11:33.520Z,100456.03
2022-10-06T13:14:09.798Z,100463.75
2022-10-06T13:16:40.605Z,100458.53
2022-10-06T13:19:18.040Z,100458.19
2022-10-06T13:21:47.677Z,100464.94
2022-10-06T13:24:16.725Z,100448.66
2022-10-06T13:26:44.288Z,100462.16
2022-10-06T13:29:22.207Z,100461.69
2022-10-06T13:31:52.904Z,100454.19
2022-10-06T13:34:24.734Z,100450.84
2022-10-06T13:36:53.860Z,100442.41
2022-10-06T13:39:23.006Z,100455.34
2022-10-06T13:41:52.631Z,100458.63
2022-10-06T13:44:33.462Z,100455.97
2022-10-06T13:47:02.416Z,100451.31
2022-10-06T13:49:33.670Z,100448.00
2022-10-06T13:52:08.768Z,100456.75
2022-10-06T13:54:41.716Z,100459.63
2022-10-06T13:57:37.764Z,100456.16
2022-10-06T14:00:08.165Z,100455.03
2022-10-06T14:02:36.615Z,100455.78
2022-10-06T14:05:26.439Z,100447.78
2022-10-06T14:07:58.310Z,100447.09
2022-10-06T14:10:31.352Z,100452.28
2022-10-06T14:13:01.433Z,100450.28
2022-10-06T14:15:31.508Z,100443.84
2022-10-06T14:18:01.261Z,100449.69
2022-10-06T14:20:38.607Z,100445.28
2022-10-06T14:23:42.049Z,100444.44
2022-10-06T14:26:11.072Z,100446.75
2022-10-06T14:28:39.517Z,100447.28
2022-10-06T14:31:14.418Z,100438.91
2022-10-06T14:33:42.602Z,100434.88
2022-10-06T14:36:16.573Z,100435.13
2022-10-06T14:38:47.292Z,100428.75
2022-10-06T14:41:18.888Z,100423.91
2022-10-06T14:43:47.508Z,100423.72
2022-10-06T14:46:15.842Z,100419.50
2022-10-06T14:48:43.673Z,100424.22
2022-10-06T14:51:11.461Z,100422.19
2022-10-06T14:53:40.271Z,100420.59
2022-10-06T14:56:11.265Z,100416.16
2022-10-06T14:58:39.623Z,100411.78
2022-10-06T15:01:07.494Z,100419.06
2022-10-06T15:03:35.455Z,100419.03
2022-10-06T15:06:33.035Z,100413.72
2022-10-06T15:09:00.576Z,100410.53
2022-10-06T15:11:30.009Z,100407.97
2022-10-06T15:13:59.218Z,100412.34
2022-10-06T15:16:29.170Z,100412.81
2022-10-06T15:18:57.174Z,100406.16
2022-10-06T15:21:25.275Z,100407.91
2022-10-06T15:23:56.397Z,100408.91
2022-10-06T15:26:41.550Z,100404.75
2022-10-06T15:29:10.550Z,100411.44
2022-10-06T15:31:39.805Z,100402.56
2022-10-06T15:34:09.060Z,100400.31
2022-10-06T15:36:37.544Z,100404.44
2022-10-06T15:39:07.902Z,100403.03
2022-10-06T15:41:36.592Z,100395.44
2022-10-06T15:44:04.838Z,100392.94
2022-10-06T15:46:35.993Z,100396.09
2022-10-06T15:49:05.200Z,100397.50
2022-10-06T15:51:34.790Z,100395.84
2022-10-06T15:54:02.509Z,100398.59
2022-10-06T15:56:31.038Z,100398.34
2022-10-06T15:58:59.002Z,100401.31
2022-10-06T16:01:38.965Z,100397.47
2022-10-06T16:04:12.098Z,100410.94
2022-10-06T16:06:55.734Z,100402.09
2022-10-06T16:09:24.834Z,100403.38
2022-10-06T16:11:52.822Z,100398.94
2022-10-06T16:14:20.599Z,100397.94
2022-10-06T16:16:49.649Z,100404.63
2022-10-06T16:19:18.511Z,100406.91
2022-10-06T16:21:47.922Z,100401.75
2022-10-06T16:24:15.755Z,100405.56
2022-10-06T16:26:43.281Z,100399.94
2022-10-06T16:29:10.893Z,100402.13
2022-10-06T16:31:38.681Z,100405.13
2022-10-06T16:34:07.746Z,100401.16
2022-10-06T16:36:36.767Z,100398.75
2022-10-06T16:39:05.286Z,100391.91
2022-10-06T16:41:33.386Z,100396.66
2022-10-06T16:44:01.175Z,100386.56
2022-10-06T16:46:30.903Z,100404.41
2022-10-06T16:49:00.089Z,100398.56
2022-10-06T16:51:30.165Z,100404.22
2022-10-06T16:53:59.317Z,100399.56
2022-10-06T16:56:28.325Z,100395.78
2022-10-06T16:58:57.148Z,100400.72
2022-10-06T17:01:26.335Z,100407.09
2022-10-06T17:03:58.950Z,100399.78
2022-10-06T17:06:26.798Z,100405.47
2022-10-06T17:08:56.629Z,100401.53
2022-10-06T17:11:25.698Z,100404.41
2022-10-06T17:13:54.426Z,100404.78
2022-10-06T17:16:23.743Z,100404.09
2022-10-06T17:18:52.781Z,100407.16
2022-10-06T17:21:44.213Z,100406.88
2022-10-06T17:24:10.591Z,100413.19
2022-10-06T17:26:39.697Z,100416.69
2022-10-06T17:29:08.783Z,100409.47
2022-10-06T17:31:37.908Z,100415.19
2022-10-06T17:34:09.851Z,100412.81
2022-10-06T17:36:37.998Z,100416.41
2022-10-06T17:39:06.806Z,100419.38
2022-10-06T17:41:37.058Z,100419.44
2022-10-06T17:44:07.844Z,100422.31
2022-10-06T17:46:38.632Z,100423.13
2022-10-06T17:49:08.953Z,100429.63
2022-10-06T17:51:38.261Z,100432.72
2022-10-06T17:54:09.165Z,100432.66
2022-10-06T17:56:38.038Z,100420.97
2022-10-06T17:59:08.067Z,100422.53
2022-10-06T18:01:37.525Z,100422.16
2022-10-06T18:04:06.667Z,100426.84
2022-10-06T18:06:35.772Z,100431.94
2022-10-06T18:09:07.298Z,100423.94
2022-10-06T18:11:35.876Z,100425.25
2022-10-06T18:14:11.963Z,100414.84
2022-10-06T18:16:41.834Z,100422.53
2022-10-06T18:19:11.749Z,100430.78
2022-10-06T18:21:40.857Z,100427.34
2022-10-06T18:24:11.631Z,100439.69
2022-10-06T18:26:41.912Z,100427.38
2022-10-06T18:29:18.756Z,100433.75
2022-10-06T18:31:46.593Z,100430.03
2022-10-06T18:37:02.689Z,100423.94
2022-10-06T18:39:32.748Z,100425.34
2022-10-06T18:42:03.750Z,100431.44
2022-10-06T18:44:50.405Z,100425.59
2022-10-06T18:47:35.949Z,100424.97
2022-10-06T18:50:03.879Z,100416.84
2022-10-06T18:52:31.657Z,100412.66
2022-10-06T18:54:59.556Z,100416.22
2022-10-06T18:57:27.996Z,100416.16
2022-10-06T18:59:57.217Z,100416.13
2022-10-06T19:02:26.371Z,100418.47
2022-10-06T19:04:54.510Z,100425.88
2022-10-06T19:07:22.418Z,100421.19
2022-10-06T19:09:50.347Z,100421.78
2022-10-06T19:12:18.201Z,100426.06
2022-10-06T19:14:47.840Z,100429.72
2022-10-06T19:17:17.273Z,100429.94
2022-10-06T19:19:48.147Z,100429.00
2022-10-06T19:22:16.137Z,100429.56
2022-10-06T19:24:48.517Z,100441.63
2022-10-06T19:27:20.624Z,100438.19
2022-10-06T19:29:52.925Z,100441.72
2022-10-06T19:32:24.454Z,100437.97
2022-10-06T19:34:52.536Z,100432.06
2022-10-06T19:37:20.451Z,100432.34
2022-10-06T19:39:50.203Z,100435.97
2022-10-06T19:42:37.195Z,100431.56
2022-10-06T19:45:06.411Z,100429.00
2022-10-06T19:47:35.392Z,100431.59
2022-10-06T19:50:08.793Z,100438.56
2022-10-06T19:52:40.711Z,100435.00
2022-10-06T19:55:10.044Z,100438.44
2022-10-06T19:57:38.915Z,100434.88
2022-10-06T20:00:08.913Z,100439.78
2022-10-06T20:02:42.157Z,100439.78
2022-10-06T20:05:11.106Z,100439.03
2022-10-06T20:07:38.817Z,100438.06
2022-10-06T20:10:07.727Z,100432.91
2022-10-06T20:12:36.054Z,100440.13
2022-10-06T20:15:03.788Z,100443.72
2022-10-06T20:17:31.867Z,100449.19
2022-10-06T20:20:03.114Z,100440.59
2022-10-06T20:22:34.281Z,100437.22
2022-10-06T20:25:02.437Z,100433.13
2022-10-06T20:27:30.070Z,100443.88
2022-10-06T20:29:58.312Z,100439.47
2022-10-06T20:32:26.333Z,100434.41
2022-10-06T20:34:55.738Z,100430.94
2022-10-06T20:37:24.865Z,100430.16
2022-10-06T20:40:10.309Z,100442.38
2022-10-06T20:42:39.927Z,100433.50
2022-10-06T20:45:08.397Z,100430.16
2022-10-06T20:47:36.408Z,100431.69
2022-10-06T20:50:04.235Z,100428.25
2022-10-06T20:52:33.116Z,100427.38
2022-10-06T20:55:00.634Z,100431.84
2022-10-06T20:57:33.879Z,100424.16
2022-10-06T21:00:02.445Z,100423.13
2022-10-06T21:02:32.142Z,100421.44
2022-10-06T21:05:03.806Z,100419.59
2022-10-06T21:07:34.926Z,100416.47
2022-10-06T21:10:06.596Z,100419.97
2022-10-06T21:12:35.153Z,100418.19
2022-10-06T21:15:07.212Z,100414.75
2022-10-06T21:17:35.908Z,100408.88
2022-10-06T21:20:10.488Z,100409.03
2022-10-06T21:22:48.357Z,100417.94
2022-10-06T21:25:20.785Z,100411.91
2022-10-06T21:27:53.061Z,100413.81
2022-10-06T21:30:21.418Z,100409.56
2022-10-06T21:32:49.821Z,100406.41
2022-10-06T21:35:24.215Z,100406.22
2022-10-06T21:37:53.958Z,100408.91
2022-10-06T21:40:21.595Z,100403.06
2022-10-06T21:42:49.508Z,100400.53
2022-10-06T21:45:18.805Z,100403.97
2022-10-06T21:47:49.439Z,100403.25
2022-10-06T21:50:17.684Z,100399.84
2022-10-06T21:52:46.105Z,100391.22
2022-10-06T21:55:15.984Z,100394.63
2022-10-06T21:57:45.173Z,100392.97
2022-10-06T22:00:14.486Z,100392.16
2022-10-06T22:02:42.277Z,100394.91
2022-10-06T22:05:10.267Z,100395.78
2022-10-06T22:07:38.606Z,100387.94
2022-10-06T22:10:07.753Z,100393.03
2022-10-06T22:12:37.746Z,100393.78
2022-10-06T22:15:06.098Z,100396.44
2022-10-06T22:17:34.352Z,100390.44
2022-10-06T22:20:02.534Z,100394.19
2022-10-06T22:22:30.855Z,100387.03
2022-10-06T22:25:01.517Z,100391.38
2022-10-06T22:27:30.317Z,100377.97
2022-10-06T22:29:59.176Z,100381.91
2022-10-06T22:32:27.380Z,100381.63
2022-10-06T22:34:54.972Z,100381.50
2022-10-06T22:37:22.610Z,100375.28
2022-10-06T22:39:50.176Z,100378.97
2022-10-06T22:42:17.758Z,100373.72
2022-10-06T22:44:45.341Z,100364.22
2022-10-06T22:47:14.290Z,100369.31
2022-10-06T22:49:41.840Z,100363.06
2022-10-06T22:52:09.425Z,100364.78
2022-10-06T22:54:36.947Z,100359.56
2022-10-06T22:57:05.087Z,100357.00
2022-10-06T22:59:32.736Z,100348.28
2022-10-06T23:02:00.312Z,100345.56
2022-10-06T23:04:29.224Z,100347.31
2022-10-06T23:06:57.053Z,100351.97
2022-10-06T23:09:24.632Z,100350.38
2022-10-06T23:11:52.259Z,100352.34
2022-10-06T23:14:19.992Z,100352.38
2022-10-06T23:16:47.585Z,100340.72
2022-10-06T23:19:15.383Z,100341.91
2022-10-06T23:21:44.301Z,100335.66
2022-10-06T23:24:12.159Z,100325.22
2022-10-06T23:26:39.734Z,100325.38
2022-10-06T23:29:07.437Z,100330.53
2022-10-06T23:31:35.361Z,100333.06
2022-10-06T23:34:02.998Z,100326.13
2022-10-06T23:36:30.529Z,100327.47
2022-10-06T23:39:00.323Z,100326.03
2022-10-06T23:41:27.830Z,100325.09
2022-10-06T23:43:55.493Z,100322.34
2022-10-06T23:46:23.067Z,100320.69
2022-10-06T23:48:50.735Z,100323.50
2022-10-06T23:51:18.432Z,100318.31
2022-10-06T23:53:46.414Z,100323.56
2022-10-06T23:56:15.444Z,100319.09
2022-10-06T23:58:43.516Z,100321.78
